Time,TemperatureF,DewpointF,PressureIn,WindDirection,WindDirectionDegrees,WindSpeedMPH,WindSpeedGustMPH,Humidity,HourlyPrecipIn,Conditions,Clouds,dailyrainin,SoftwareType,DateUTC
2013-02-20 00:00:00,17.8,14.6,29.48,West,270,6.0,7.0,87,0.00,,,0.00,Weather View 32 v70,2013-02-20 09:00:00,
2013-02-20 00:05:00,17.6,14.4,29.48,West,270,5.0,7.0,87,0.00,,,0.00,Weather View 32 v70,2013-02-20 09:05:00,
2013-02-20 00:10:00,17.6,14.4,29.48,West,270,5.0,7.0,87,0.00,,,0.00,Weather View 32 v70,2013-02-20 09:10:00,
2013-02-20 00:15:00,17.6,14.4,29.48,West,270,4.0,7.0,87,0.00,,,0.00,Weather View 32 v70,2013-02-20 09:15:00,
2013-02-20 00:25:00,17.8,14.6,29.47,West,270,3.0,7.0,87,0.00,,,0.00,Weather View 32 v70,2013-02-20 09:25:00,
2013-02-20 00:31:00,17.6,14.4,29.47,West,270,2.0,7.0,87,0.00,,,0.00,Weather View 32 v70,2013-02-20 09:31:00,
2013-02-20 00:41:00,17.6,14.4,29.47,West,270,3.0,7.0,87,0.00,,,0.00,Weather View 32 v70,2013-02-20 09:41:00,
2013-02-20 00:46:00,17.6,14.4,29.47,West,270,3.0,6.0,87,0.00,,,0.00,Weather View 32 v70,2013-02-20 09:46:00,
2013-02-20 00:56:00,17.6,14.4,29.47,West,270,3.0,6.0,87,0.00,,,0.00,Weather View 32 v70,2013-02-20 09:56:00,
2013-02-20 01:01:00,17.6,14.4,29.47,West,270,3.0,6.0,87,0.00,,,0.00,Weather View 32 v70,2013-02-20 10:01:00,
2013-02-20 01:06:00,17.6,14.4,29.46,West,270,4.0,5.0,87,0.00,,,0.00,Weather View 32 v70,2013-02-20 10:06:00,
2013-02-20 01:11:00,17.8,14.6,29.46,West,270,5.0,5.0,87,0.00,,,0.00,Weather View 32 v70,2013-02-20 10:11:00,
2013-02-20 01:21:00,17.8,14.6,29.46,West,270,4.0,5.0,87,0.00,,,0.00,Weather View 32 v70,2013-02-20 10:21:00,
2013-02-20 01:26:00,17.8,14.6,29.45,West,270,4.0,5.0,87,0.00,,,0.00,Weather View 32 v70,2013-02-20 10:26:00,
2013-02-20 01:31:00,17.8,14.6,29.45,West,270,4.0,5.0,87,0.00,,,0.00,Weather View 32 v70,2013-02-20 10:31:00,
2013-02-20 01:36:00,18.1,14.9,29.45,West,270,4.0,5.0,87,0.00,,,0.00,Weather View 32 v70,2013-02-20 10:36:00,
2013-02-20 01:41:00,18.1,14.9,29.45,West,270,4.0,5.0,87,0.00,,,0.00,Weather View 32 v70,2013-02-20 10:41:00,
2013-02-20 01:46:00,18.1,14.9,29.44,West,270,4.0,5.0,87,0.00,,,0.00,Weather View 32 v70,2013-02-20 10:46:00,
2013-02-20 01:51:00,18.1,14.9,29.44,West,270,4.0,5.0,87,0.00,,,0.00,Weather View 32 v70,2013-02-20 10:51:00,
2013-02-20 02:00:00,18.0,14.7,29.44,West,270,3.0,5.0,87,0.00,,,0.00,Weather View 32 v70,2013-02-20 11:00:00,
2013-02-20 02:05:00,18.1,14.9,29.44,West,270,2.0,5.0,87,0.00,,,0.00,Weather View 32 v70,2013-02-20 11:05:00,
2013-02-20 02:10:00,18.1,14.9,29.44,West,270,2.0,5.0,87,0.00,,,0.00,Weather View 32 v70,2013-02-20 11:10:00,
2013-02-20 02:15:00,18.1,14.9,29.44,West,270,3.0,4.0,87,0.00,,,0.00,Weather View 32 v70,2013-02-20 11:15:00,
2013-02-20 02:20:00,18.1,14.9,29.44,West,270,3.0,4.0,87,0.00,,,0.00,Weather View 32 v70,2013-02-20 11:20:00,
2013-02-20 02:25:00,18.1,14.9,29.43,West,270,3.0,4.0,87,0.00,,,0.00,Weather View 32 v70,2013-02-20 11:25:00,
2013-02-20 02:30:00,18.1,14.9,29.43,West,270,3.0,4.0,87,0.00,,,0.00,Weather View 32 v70,2013-02-20 11:30:00,
2013-02-20 02:40:00,18.5,15.3,29.43,West,270,4.0,4.0,87,0.00,,,0.00,Weather View 32 v70,2013-02-20 11:40:00,
2013-02-20 02:45:00,18.3,15.1,29.42,West,270,4.0,4.0,87,0.00,,,0.00,Weather View 32 v70,2013-02-20 11:45:00,
2013-02-20 02:50:00,18.3,15.1,29.42,West,270,4.0,4.0,87,0.00,,,0.00,Weather View 32 v70,2013-02-20 11:50:00,
2013-02-20 02:55:00,18.3,15.1,29.42,West,270,4.0,4.0,87,0.00,,,0.00,Weather View 32 v70,2013-02-20 11:55:00,
2013-02-20 03:00:00,18.5,15.3,29.42,West,270,4.0,4.0,87,0.00,,,0.00,Weather View 32 v70,2013-02-20 12:00:00,
2013-02-20 03:08:00,18.3,15.1,29.42,West,270,4.0,4.0,87,0.00,,,0.00,Weather View 32 v70,2013-02-20 12:08:00,
2013-02-20 03:15:00,18.5,15.3,29.42,West,270,4.0,4.0,87,0.00,,,0.00,Weather View 32 v70,2013-02-20 12:15:00,
2013-02-20 03:20:00,18.5,15.3,29.42,West,270,4.0,4.0,87,0.00,,,0.00,Weather View 32 v70,2013-02-20 12:20:00,
2013-02-20 03:25:00,18.5,15.3,29.41,West,270,5.0,5.0,87,0.00,,,0.00,Weather View 32 v70,2013-02-20 12:25:00,
2013-02-20 03:30:00,18.5,15.3,29.41,West,270,5.0,5.0,87,0.00,,,0.00,Weather View 32 v70,2013-02-20 12:30:00,
2013-02-20 03:35:00,18.5,15.3,29.41,West,270,5.0,5.0,87,0.00,,,0.00,Weather View 32 v70,2013-02-20 12:35:00,
2013-02-20 03:40:00,18.5,15.3,29.41,West,270,5.0,5.0,87,0.00,,,0.00,Weather View 32 v70,2013-02-20 12:40:00,
2013-02-20 03:50:00,18.5,15.3,29.40,West,270,5.0,5.0,87,0.00,,,0.00,Weather View 32 v70,2013-02-20 12:50:00,
2013-02-20 03:55:00,18.5,15.3,29.40,West,270,5.0,5.0,87,0.00,,,0.00,Weather View 32 v70,2013-02-20 12:55:00,
2013-02-20 04:00:00,18.5,15.3,29.40,West,270,5.0,5.0,87,0.00,,,0.00,Weather View 32 v70,2013-02-20 13:00:00,
2013-02-20 04:05:00,18.3,15.1,29.39,West,270,5.0,5.0,87,0.00,,,0.00,Weather View 32 v70,2013-02-20 13:05:00,
2013-02-20 04:10:00,18.3,15.1,29.39,West,270,5.0,5.0,87,0.00,,,0.00,Weather View 32 v70,2013-02-20 13:10:00,
2013-02-20 04:15:00,18.3,15.1,29.39,West,270,5.0,5.0,87,0.00,,,0.00,Weather View 32 v70,2013-02-20 13:15:00,
2013-02-20 04:25:00,18.3,15.1,29.38,West,270,5.0,5.0,87,0.00,,,0.00,Weather View 32 v70,2013-02-20 13:25:00,
2013-02-20 04:35:00,18.1,14.7,29.38,West,270,5.0,5.0,86,0.00,,,0.00,Weather View 32 v70,2013-02-20 13:35:00,
2013-02-20 04:40:00,18.1,14.7,29.38,West,270,5.0,5.0,86,0.00,,,0.00,Weather View 32 v70,2013-02-20 13:40:00,
2013-02-20 04:45:00,18.1,14.7,29.37,West,270,5.0,5.0,86,0.00,,,0.00,Weather View 32 v70,2013-02-20 13:45:00,
2013-02-20 04:55:00,18.1,14.7,29.37,West,270,5.0,5.0,86,0.00,,,0.00,Weather View 32 v70,2013-02-20 13:55:00,
2013-02-20 05:00:00,18.1,14.7,29.37,West,270,5.0,5.0,86,0.00,,,0.00,Weather View 32 v70,2013-02-20 14:00:00,
2013-02-20 05:05:00,18.1,14.7,29.36,West,270,5.0,5.0,86,0.00,,,0.00,Weather View 32 v70,2013-02-20 14:05:00,
2013-02-20 05:10:00,18.1,14.7,29.36,West,270,5.0,5.0,86,0.00,,,0.00,Weather View 32 v70,2013-02-20 14:10:00,
2013-02-20 05:15:00,18.1,14.7,29.36,West,270,4.0,5.0,86,0.00,,,0.00,Weather View 32 v70,2013-02-20 14:15:00,
2013-02-20 05:20:00,18.1,14.7,29.36,West,270,4.0,5.0,86,0.00,,,0.00,Weather View 32 v70,2013-02-20 14:20:00,
2013-02-20 05:30:00,18.1,14.7,29.37,West,270,3.0,5.0,86,0.00,,,0.00,Weather View 32 v70,2013-02-20 14:30:00,
2013-02-20 05:35:00,18.1,14.7,29.37,West,270,3.0,5.0,86,0.00,,,0.00,Weather View 32 v70,2013-02-20 14:35:00,
2013-02-20 05:45:00,18.1,14.7,29.35,West,270,3.0,5.0,86,0.00,,,0.00,Weather View 32 v70,2013-02-20 14:45:00,
2013-02-20 05:50:00,18.1,14.7,29.35,West,270,3.0,5.0,86,0.00,,,0.00,Weather View 32 v70,2013-02-20 14:50:00,
2013-02-20 05:55:00,18.1,14.7,29.35,West,270,3.0,5.0,86,0.00,,,0.00,Weather View 32 v70,2013-02-20 14:55:00,
2013-02-20 06:05:00,18.1,14.7,29.34,West,270,4.0,5.0,86,0.00,,,0.00,Weather View 32 v70,2013-02-20 15:05:00,
2013-02-20 06:11:00,18.1,14.7,29.34,West,270,4.0,5.0,86,0.00,,,0.00,Weather View 32 v70,2013-02-20 15:11:00,
2013-02-20 06:20:00,18.5,15.0,29.34,West,270,4.0,4.0,86,0.00,,,0.00,Weather View 32 v70,2013-02-20 15:20:00,
2013-02-20 06:25:00,18.5,15.0,29.34,West,270,3.0,4.0,86,0.00,,,0.00,Weather View 32 v70,2013-02-20 15:25:00,
2013-02-20 06:35:00,18.1,14.4,29.34,NNW,338,3.0,4.0,85,0.00,,,0.00,Weather View 32 v70,2013-02-20 15:35:00,
2013-02-20 06:41:00,18.1,14.4,29.34,NNW,338,3.0,4.0,85,0.00,,,0.00,Weather View 32 v70,2013-02-20 15:41:00,
2013-02-20 06:46:00,18.1,14.4,29.34,NNW,338,2.0,4.0,85,0.00,,,0.00,Weather View 32 v70,2013-02-20 15:46:00,
2013-02-20 06:51:00,18.1,14.4,29.34,NNW,338,2.0,4.0,85,0.00,,,0.00,Weather View 32 v70,2013-02-20 15:51:00,
2013-02-20 07:01:00,18.0,14.5,29.34,NNW,338,3.0,4.0,86,0.00,,,0.00,Weather View 32 v70,2013-02-20 16:01:00,
2013-02-20 07:06:00,18.1,14.4,29.32,NNW,338,3.0,4.0,85,0.00,,,0.00,Weather View 32 v70,2013-02-20 16:06:00,
2013-02-20 07:11:00,18.1,14.4,29.32,NNW,338,2.0,4.0,85,0.00,,,0.00,Weather View 32 v70,2013-02-20 16:11:00,
2013-02-20 07:16:00,17.8,14.0,29.32,NNW,338,2.0,4.0,85,0.00,,,0.00,Weather View 32 v70,2013-02-20 16:16:00,
2013-02-20 07:26:00,17.8,14.0,29.33,NNW,338,2.0,3.0,85,0.00,,,0.00,Weather View 32 v70,2013-02-20 16:26:00,
2013-02-20 07:31:00,17.8,14.0,29.33,NNW,338,2.0,3.0,85,0.00,,,0.00,Weather View 32 v70,2013-02-20 16:31:00,
2013-02-20 07:36:00,17.8,14.0,29.33,NNW,338,2.0,3.0,85,0.00,,,0.00,Weather View 32 v70,2013-02-20 16:36:00,
2013-02-20 07:46:00,18.1,14.4,29.32,NNW,338,2.0,3.0,85,0.00,,,0.00,Weather View 32 v70,2013-02-20 16:46:00,
2013-02-20 07:56:00,18.1,14.4,29.32,NNW,338,2.0,3.0,85,0.00,,,0.00,Weather View 32 v70,2013-02-20 16:56:00,
2013-02-20 08:05:00,18.1,14.4,29.32,NNW,338,2.0,3.0,85,0.00,,,0.00,Weather View 32 v70,2013-02-20 17:05:00,
2013-02-20 08:11:00,18.3,14.6,29.32,NNW,338,2.0,2.0,85,0.00,,,0.00,Weather View 32 v70,2013-02-20 17:11:00,
2013-02-20 08:20:00,18.5,14.7,29.32,NNW,338,2.0,2.0,85,0.00,,,0.00,Weather View 32 v70,2013-02-20 17:20:00,
2013-02-20 08:25:00,18.5,14.7,29.32,NNW,338,2.0,2.0,85,0.00,,,0.00,Weather View 32 v70,2013-02-20 17:25:00,
2013-02-20 08:35:00,18.5,14.7,29.32,NNW,338,1.0,2.0,85,0.00,,,0.00,Weather View 32 v70,2013-02-20 17:35:00,
2013-02-20 08:45:00,18.9,15.1,29.34,NNW,338,1.0,2.0,85,0.00,,,0.00,Weather View 32 v70,2013-02-20 17:45:00,
2013-02-20 08:50:00,18.9,15.1,29.34,NNW,338,1.0,2.0,85,0.00,,,0.00,Weather View 32 v70,2013-02-20 17:50:00,
2013-02-20 08:55:00,18.9,15.1,29.34,NNW,338,2.0,2.0,85,0.00,,,0.00,Weather View 32 v70,2013-02-20 17:55:00,
2013-02-20 09:05:00,19.0,15.3,29.35,NNW,338,1.0,2.0,85,0.00,,,0.00,Weather View 32 v70,2013-02-20 18:05:00,
2013-02-20 09:10:00,19.2,15.5,29.35,NNW,338,1.0,2.0,85,0.00,,,0.00,Weather View 32 v70,2013-02-20 18:10:00,
2013-02-20 09:15:00,19.2,15.5,29.35,NNW,338,2.0,2.0,85,0.00,,,0.00,Weather View 32 v70,2013-02-20 18:15:00,
2013-02-20 09:20:00,19.6,16.1,29.35,NNW,338,2.0,2.0,86,0.00,,,0.00,Weather View 32 v70,2013-02-20 18:20:00,
2013-02-20 09:25:00,19.4,15.6,29.35,NNW,338,2.0,2.0,85,0.00,,,0.00,Weather View 32 v70,2013-02-20 18:25:00,
2013-02-20 09:30:00,19.6,16.1,29.35,NNW,338,2.0,2.0,86,0.00,,,0.00,Weather View 32 v70,2013-02-20 18:30:00,
2013-02-20 09:42:00,19.9,16.2,29.35,NNW,338,1.0,2.0,85,0.00,,,0.00,Weather View 32 v70,2013-02-20 18:42:00,
2013-02-20 09:47:00,20.3,16.5,29.36,NNW,338,1.0,2.0,85,0.00,,,0.00,Weather View 32 v70,2013-02-20 18:47:00,
2013-02-20 09:52:00,20.3,16.5,29.36,NNW,338,1.0,2.0,85,0.00,,,0.00,Weather View 32 v70,2013-02-20 18:52:00,
2013-02-20 09:57:00,20.3,16.5,29.36,NNW,338,1.0,2.0,85,0.00,,,0.00,Weather View 32 v70,2013-02-20 18:57:00,
2013-02-20 10:02:00,20.5,16.7,29.36,NNW,338,2.0,2.0,85,0.00,,,0.00,Weather View 32 v70,2013-02-20 19:02:00,
2013-02-20 10:07:00,20.7,16.9,29.36,NNW,338,2.0,2.0,85,0.00,,,0.00,Weather View 32 v70,2013-02-20 19:07:00,
2013-02-20 10:12:00,21.0,17.2,29.36,NNW,338,2.0,2.0,85,0.00,,,0.00,Weather View 32 v70,2013-02-20 19:12:00,
2013-02-20 10:17:00,21.0,17.2,29.36,NNW,338,2.0,2.0,85,0.00,,,0.00,Weather View 32 v70,2013-02-20 19:17:00,
2013-02-20 10:22:00,21.4,17.6,29.36,NNW,338,2.0,2.0,85,0.00,,,0.00,Weather View 32 v70,2013-02-20 19:22:00,
2013-02-20 10:27:00,21.7,17.9,29.36,NNW,338,2.0,2.0,85,0.00,,,0.00,Weather View 32 v70,2013-02-20 19:27:00,
2013-02-20 10:32:00,21.9,18.1,29.36,NNW,338,2.0,2.0,85,0.00,,,0.00,Weather View 32 v70,2013-02-20 19:32:00,
2013-02-20 10:37:00,22.5,18.6,29.36,NNW,338,2.0,2.0,85,0.00,,,0.00,Weather View 32 v70,2013-02-20 19:37:00,
2013-02-20 10:42:00,22.5,18.4,29.36,NE,45,2.0,2.0,84,0.00,,,0.00,Weather View 32 v70,2013-02-20 19:42:00,
2013-02-20 10:47:00,23.2,19.1,29.36,NNE,22,2.0,2.0,84,0.00,,,0.00,Weather View 32 v70,2013-02-20 19:47:00,
2013-02-20 10:52:00,23.5,19.1,29.36,NNE,22,2.0,2.0,83,0.00,,,0.00,Weather View 32 v70,2013-02-20 19:52:00,
2013-02-20 10:57:00,23.9,19.5,29.36,NNW,338,2.0,2.0,83,0.00,,,0.00,Weather View 32 v70,2013-02-20 19:57:00,
2013-02-20 11:02:00,24.3,19.6,29.36,NNE,22,2.0,2.0,82,0.00,,,0.00,Weather View 32 v70,2013-02-20 20:02:00,
2013-02-20 11:07:00,24.8,19.8,29.36,North,0,2.0,2.0,81,0.00,,,0.00,Weather View 32 v70,2013-02-20 20:07:00,
2013-02-20 11:12:00,24.8,19.8,29.36,NNW,338,2.0,2.0,81,0.00,,,0.00,Weather View 32 v70,2013-02-20 20:12:00,
2013-02-20 11:17:00,24.6,19.6,29.36,NNE,22,2.0,2.0,81,0.00,,,0.00,Weather View 32 v70,2013-02-20 20:17:00,
2013-02-20 11:22:00,24.6,19.6,29.36,NNE,22,2.0,2.0,81,0.00,,,0.00,Weather View 32 v70,2013-02-20 20:22:00,
2013-02-20 11:27:00,24.3,19.0,29.36,NNE,22,2.0,2.0,80,0.00,,,0.00,Weather View 32 v70,2013-02-20 20:27:00,
2013-02-20 11:32:00,24.1,18.8,29.36,NNE,22,2.0,2.0,80,0.00,,,0.00,Weather View 32 v70,2013-02-20 20:32:00,
2013-02-20 11:37:00,23.9,18.6,29.36,NNE,22,2.0,2.0,80,0.00,,,0.00,Weather View 32 v70,2013-02-20 20:37:00,
2013-02-20 11:42:00,23.9,18.9,29.36,NNE,22,2.0,2.0,81,0.00,,,0.00,Weather View 32 v70,2013-02-20 20:42:00,
2013-02-20 11:47:00,24.1,19.1,29.37,North,0,2.0,2.0,81,0.00,,,0.00,Weather View 32 v70,2013-02-20 20:47:00,
2013-02-20 11:52:00,24.3,19.0,29.37,NNE,22,3.0,3.0,80,0.00,,,0.00,Weather View 32 v70,2013-02-20 20:52:00,
2013-02-20 11:57:00,24.6,19.3,29.37,North,0,3.0,3.0,80,0.00,,,0.00,Weather View 32 v70,2013-02-20 20:57:00,
2013-02-20 12:02:00,24.6,19.3,29.37,NNE,22,2.0,3.0,80,0.00,,,0.00,Weather View 32 v70,2013-02-20 21:02:00,
2013-02-20 12:07:00,24.6,19.3,29.37,North,0,2.0,3.0,80,0.00,,,0.00,Weather View 32 v70,2013-02-20 21:07:00,
2013-02-20 12:12:00,24.6,19.3,29.37,North,0,2.0,3.0,80,0.00,,,0.00,Weather View 32 v70,2013-02-20 21:12:00,
2013-02-20 12:17:00,24.6,19.0,29.37,NNW,338,2.0,3.0,79,0.00,,,0.00,Weather View 32 v70,2013-02-20 21:17:00,
2013-02-20 12:22:00,24.6,19.0,29.37,NNW,338,2.0,3.0,79,0.00,,,0.00,Weather View 32 v70,2013-02-20 21:22:00,
2013-02-20 12:27:00,24.6,19.0,29.37,NNW,338,2.0,3.0,79,0.00,,,0.00,Weather View 32 v70,2013-02-20 21:27:00,
2013-02-20 12:32:00,24.6,19.0,29.37,NNW,338,2.0,3.0,79,0.00,,,0.00,Weather View 32 v70,2013-02-20 21:32:00,
2013-02-20 12:37:00,25.3,19.7,29.37,NNE,22,2.0,3.0,79,0.00,,,0.00,Weather View 32 v70,2013-02-20 21:37:00,
2013-02-20 12:42:00,25.3,19.7,29.37,NNE,22,2.0,3.0,79,0.00,,,0.00,Weather View 32 v70,2013-02-20 21:42:00,
2013-02-20 12:47:00,25.3,19.7,29.37,NNE,22,2.0,3.0,79,0.00,,,0.00,Weather View 32 v70,2013-02-20 21:47:00,
2013-02-20 12:52:00,25.3,19.7,29.37,NNE,22,2.0,3.0,79,0.00,,,0.00,Weather View 32 v70,2013-02-20 21:52:00,
2013-02-20 12:57:00,25.3,19.7,29.37,NNW,338,2.0,3.0,79,0.00,,,0.00,Weather View 32 v70,2013-02-20 21:57:00,
2013-02-20 13:02:00,25.5,19.6,29.37,NNW,338,2.0,2.0,78,0.00,,,0.00,Weather View 32 v70,2013-02-20 22:02:00,
2013-02-20 13:07:00,26.1,20.1,29.38,NNW,338,2.0,2.0,78,0.00,,,0.00,Weather View 32 v70,2013-02-20 22:07:00,
2013-02-20 13:12:00,26.1,20.1,29.38,NNW,338,2.0,2.0,78,0.00,,,0.00,Weather View 32 v70,2013-02-20 22:12:00,
2013-02-20 13:17:00,26.6,20.4,29.38,NNW,338,2.0,2.0,77,0.00,,,0.00,Weather View 32 v70,2013-02-20 22:17:00,
2013-02-20 13:22:00,26.8,20.5,29.38,NNW,338,2.0,2.0,77,0.00,,,0.00,Weather View 32 v70,2013-02-20 22:22:00,
2013-02-20 13:27:00,27.0,20.7,29.37,North,0,2.0,2.0,77,0.00,,,0.00,Weather View 32 v70,2013-02-20 22:27:00,
2013-02-20 13:32:00,27.0,20.7,29.37,North,0,2.0,2.0,77,0.00,,,0.00,Weather View 32 v70,2013-02-20 22:32:00,
2013-02-20 13:37:00,27.1,20.9,29.37,North,0,2.0,2.0,77,0.00,,,0.00,Weather View 32 v70,2013-02-20 22:37:00,
2013-02-20 13:42:00,26.8,20.5,29.37,NNE,22,2.0,2.0,77,0.00,,,0.00,Weather View 32 v70,2013-02-20 22:42:00,
2013-02-20 13:47:00,26.8,20.5,29.38,NNE,22,2.0,2.0,77,0.00,,,0.00,Weather View 32 v70,2013-02-20 22:47:00,
2013-02-20 13:52:00,26.8,20.8,29.38,NNE,22,2.0,2.0,78,0.00,,,0.00,Weather View 32 v70,2013-02-20 22:52:00,
2013-02-20 13:57:00,27.0,21.0,29.38,NNE,22,1.0,2.0,78,0.00,,,0.00,Weather View 32 v70,2013-02-20 22:57:00,
2013-02-20 14:02:00,27.0,20.7,29.38,NNE,22,2.0,2.0,77,0.00,,,0.00,Weather View 32 v70,2013-02-20 23:02:00,
2013-02-20 14:07:00,27.5,21.2,29.38,NNE,22,2.0,2.0,77,0.00,,,0.00,Weather View 32 v70,2013-02-20 23:07:00,
2013-02-20 14:12:00,27.9,21.6,29.38,NNE,22,1.0,2.0,77,0.00,,,0.00,Weather View 32 v70,2013-02-20 23:12:00,
2013-02-20 14:17:00,28.2,21.9,29.38,NNE,22,1.0,2.0,77,0.00,,,0.00,Weather View 32 v70,2013-02-20 23:17:00,
2013-02-20 14:22:00,28.6,22.0,29.38,NNE,22,1.0,2.0,76,0.00,,,0.00,Weather View 32 v70,2013-02-20 23:22:00,
2013-02-20 14:27:00,28.9,22.3,29.39,NNE,22,1.0,2.0,76,0.00,,,0.00,Weather View 32 v70,2013-02-20 23:27:00,
2013-02-20 14:32:00,28.9,22.3,29.39,NNE,22,1.0,2.0,76,0.00,,,0.00,Weather View 32 v70,2013-02-20 23:32:00,
2013-02-20 14:37:00,28.9,22.3,29.39,NNE,22,1.0,2.0,76,0.00,,,0.00,Weather View 32 v70,2013-02-20 23:37:00,
2013-02-20 14:42:00,28.9,22.3,29.39,NNE,22,1.0,2.0,76,0.00,,,0.00,Weather View 32 v70,2013-02-20 23:42:00,
2013-02-20 14:47:00,28.9,22.3,29.39,NNE,22,1.0,2.0,76,0.00,,,0.00,Weather View 32 v70,2013-02-20 23:47:00,
2013-02-20 14:53:00,28.9,22.3,29.39,NNE,22,0.0,2.0,76,0.00,,,0.00,Weather View 32 v70,2013-02-20 23:53:00,
2013-02-20 14:58:00,28.9,22.3,29.39,NNE,22,1.0,2.0,76,0.00,,,0.00,Weather View 32 v70,2013-02-20 23:58:00,
2013-02-20 15:03:00,28.9,22.0,29.39,NNE,22,1.0,2.0,75,0.00,,,0.00,Weather View 32 v70,2013-02-21 00:03:00,
2013-02-20 15:08:00,28.9,22.0,29.39,NNE,22,2.0,2.0,75,0.00,,,0.00,Weather View 32 v70,2013-02-21 00:08:00,
2013-02-20 15:13:00,28.9,22.0,29.39,NNE,22,2.0,2.0,75,0.00,,,0.00,Weather View 32 v70,2013-02-21 00:13:00,
2013-02-20 15:18:00,28.9,22.0,29.39,NNE,22,2.0,2.0,75,0.00,,,0.00,Weather View 32 v70,2013-02-21 00:18:00,
2013-02-20 15:23:00,28.9,22.0,29.39,NNE,22,2.0,2.0,75,0.00,,,0.00,Weather View 32 v70,2013-02-21 00:23:00,
2013-02-20 15:28:00,28.9,22.0,29.39,NNE,22,2.0,2.0,75,0.00,,,0.00,Weather View 32 v70,2013-02-21 00:28:00,
2013-02-20 15:33:00,29.1,22.2,29.39,NNE,22,1.0,2.0,75,0.00,,,0.00,Weather View 32 v70,2013-02-21 00:33:00,
2013-02-20 15:38:00,28.9,22.0,29.39,NNE,22,1.0,2.0,75,0.00,,,0.00,Weather View 32 v70,2013-02-21 00:38:00,
2013-02-20 15:43:00,28.9,22.0,29.40,NNE,22,2.0,2.0,75,0.00,,,0.00,Weather View 32 v70,2013-02-21 00:43:00,
2013-02-20 15:48:00,28.9,22.3,29.40,NNE,22,1.0,2.0,76,0.00,,,0.00,Weather View 32 v70,2013-02-21 00:48:00,
2013-02-20 15:53:00,28.9,22.3,29.40,NNE,22,1.0,2.0,76,0.00,,,0.00,Weather View 32 v70,2013-02-21 00:53:00,
2013-02-20 15:58:00,29.1,22.5,29.40,NNE,22,1.0,2.0,76,0.00,,,0.00,Weather View 32 v70,2013-02-21 00:58:00,
2013-02-20 16:04:00,29.1,22.5,29.41,NNE,22,1.0,2.0,76,0.00,,,0.00,Weather View 32 v70,2013-02-21 01:04:00,
2013-02-20 16:09:00,28.9,22.0,29.41,NNE,22,1.0,2.0,75,0.00,,,0.00,Weather View 32 v70,2013-02-21 01:09:00,
2013-02-20 16:14:00,28.9,22.0,29.41,NNE,22,1.0,2.0,75,0.00,,,0.00,Weather View 32 v70,2013-02-21 01:14:00,
2013-02-20 16:19:00,28.9,22.3,29.41,NNE,22,1.0,2.0,76,0.00,,,0.00,Weather View 32 v70,2013-02-21 01:19:00,
2013-02-20 16:24:00,28.9,22.3,29.42,NNE,22,0.0,2.0,76,0.00,,,0.00,Weather View 32 v70,2013-02-21 01:24:00,
2013-02-20 16:29:00,28.9,22.3,29.42,NNE,22,0.0,2.0,76,0.00,,,0.00,Weather View 32 v70,2013-02-21 01:29:00,
2013-02-20 16:34:00,28.9,22.3,29.42,NNE,22,0.0,2.0,76,0.00,,,0.00,Weather View 32 v70,2013-02-21 01:34:00,
2013-02-20 16:39:00,28.9,22.3,29.42,NNE,22,0.0,2.0,76,0.00,,,0.00,Weather View 32 v70,2013-02-21 01:39:00,
2013-02-20 16:44:00,28.6,22.3,29.42,NNE,22,0.0,2.0,77,0.00,,,0.00,Weather View 32 v70,2013-02-21 01:44:00,
2013-02-20 16:49:00,28.6,22.3,29.42,NNE,22,0.0,1.0,77,0.00,,,0.00,Weather View 32 v70,2013-02-21 01:49:00,
2013-02-20 16:54:00,28.6,22.3,29.42,NNE,22,0.0,1.0,77,0.00,,,0.00,Weather View 32 v70,2013-02-21 01:54:00,
2013-02-20 16:59:00,28.4,22.1,29.42,NNE,22,0.0,1.0,77,0.00,,,0.00,Weather View 32 v70,2013-02-21 01:59:00,
2013-02-20 17:04:00,28.2,21.9,29.42,NNE,22,0.0,1.0,77,0.00,,,0.00,Weather View 32 v70,2013-02-21 02:04:00,
2013-02-20 17:09:00,28.2,21.9,29.42,NNE,22,0.0,1.0,77,0.00,,,0.00,Weather View 32 v70,2013-02-21 02:09:00,
2013-02-20 17:14:00,27.9,21.6,29.42,NNE,22,0.0,1.0,77,0.00,,,0.00,Weather View 32 v70,2013-02-21 02:14:00,
2013-02-20 17:19:00,27.9,21.9,29.42,NNE,22,0.0,1.0,78,0.00,,,0.00,Weather View 32 v70,2013-02-21 02:19:00,
2013-02-20 17:24:00,27.5,21.5,29.43,NNE,22,0.0,1.0,78,0.00,,,0.00,Weather View 32 v70,2013-02-21 02:24:00,
2013-02-20 17:29:00,27.5,21.5,29.43,NNE,22,0.0,1.0,78,0.00,,,0.00,Weather View 32 v70,2013-02-21 02:29:00,
2013-02-20 17:34:00,27.0,21.3,29.43,NNE,22,0.0,0.0,79,0.00,,,0.00,Weather View 32 v70,2013-02-21 02:34:00,
2013-02-20 17:39:00,26.8,21.1,29.43,NNE,22,0.0,0.0,79,0.00,,,0.00,Weather View 32 v70,2013-02-21 02:39:00,
2013-02-20 17:44:00,26.2,20.6,29.44,NNE,22,0.0,0.0,79,0.00,,,0.00,Weather View 32 v70,2013-02-21 02:44:00,
2013-02-20 17:49:00,26.1,20.7,29.44,NNE,22,0.0,0.0,80,0.00,,,0.00,Weather View 32 v70,2013-02-21 02:49:00,
2013-02-20 17:54:00,25.7,20.7,29.44,NNE,22,0.0,0.0,81,0.00,,,0.00,Weather View 32 v70,2013-02-21 02:54:00,
2013-02-20 17:59:00,25.7,21.0,29.44,NNE,22,0.0,0.0,82,0.00,,,0.00,Weather View 32 v70,2013-02-21 02:59:00,
2013-02-20 18:04:00,25.7,21.0,29.45,NNE,22,0.0,0.0,82,0.00,,,0.00,Weather View 32 v70,2013-02-21 03:04:00,
2013-02-20 18:10:00,25.3,20.6,29.45,NNE,22,0.0,0.0,82,0.00,,,0.00,Weather View 32 v70,2013-02-21 03:10:00,
2013-02-20 18:15:00,25.3,20.6,29.45,NNE,22,0.0,0.0,82,0.00,,,0.00,Weather View 32 v70,2013-02-21 03:15:00,
2013-02-20 18:20:00,25.0,20.5,29.45,NNE,22,0.0,0.0,83,0.00,,,0.00,Weather View 32 v70,2013-02-21 03:20:00,
2013-02-20 18:25:00,25.0,20.5,29.43,NNE,22,0.0,0.0,83,0.00,,,0.00,Weather View 32 v70,2013-02-21 03:25:00,
2013-02-20 18:29:00,24.8,20.7,29.43,NNE,22,0.0,0.0,84,0.00,,,0.00,Weather View 32 v70,2013-02-21 03:29:00,
2013-02-20 18:34:00,24.8,20.7,29.43,NNE,22,0.0,0.0,84,0.00,,,0.00,Weather View 32 v70,2013-02-21 03:34:00,
2013-02-20 18:39:00,24.8,20.7,29.43,NNE,22,0.0,0.0,84,0.00,,,0.00,Weather View 32 v70,2013-02-21 03:39:00,
2013-02-20 18:44:00,24.6,20.5,29.42,NNE,22,0.0,0.0,84,0.00,,,0.00,Weather View 32 v70,2013-02-21 03:44:00,
2013-02-20 18:50:00,24.6,20.5,29.42,NNE,22,0.0,0.0,84,0.00,,,0.00,Weather View 32 v70,2013-02-21 03:50:00,
2013-02-20 18:55:00,24.6,20.5,29.42,NNE,22,0.0,0.0,84,0.00,,,0.00,Weather View 32 v70,2013-02-21 03:55:00,
2013-02-20 19:00:00,24.6,20.8,29.42,NNE,22,0.0,0.0,85,0.00,,,0.00,Weather View 32 v70,2013-02-21 04:00:00,
2013-02-20 19:05:00,24.6,20.8,29.43,NNE,22,1.0,1.0,85,0.00,,,0.00,Weather View 32 v70,2013-02-21 04:05:00,
2013-02-20 19:10:00,24.6,20.8,29.43,NNE,22,1.0,1.0,85,0.00,,,0.00,Weather View 32 v70,2013-02-21 04:10:00,
2013-02-20 19:15:00,24.6,20.8,29.43,NNE,22,0.0,1.0,85,0.00,,,0.00,Weather View 32 v70,2013-02-21 04:15:00,
2013-02-20 19:20:00,24.6,20.8,29.43,NNE,22,0.0,1.0,85,0.00,,,0.00,Weather View 32 v70,2013-02-21 04:20:00,
2013-02-20 19:25:00,24.4,20.9,29.44,NNE,22,0.0,1.0,86,0.00,,,0.00,Weather View 32 v70,2013-02-21 04:25:00,
2013-02-20 19:30:00,24.4,20.9,29.44,NNE,22,0.0,1.0,86,0.00,,,0.00,Weather View 32 v70,2013-02-21 04:30:00,
2013-02-20 19:35:00,24.6,21.0,29.44,NNE,22,0.0,1.0,86,0.00,,,0.00,Weather View 32 v70,2013-02-21 04:35:00,
2013-02-20 19:40:00,24.6,21.0,29.44,NNE,22,0.0,1.0,86,0.00,,,0.00,Weather View 32 v70,2013-02-21 04:40:00,
2013-02-20 19:45:00,24.3,20.7,29.44,NNE,22,0.0,1.0,86,0.00,,,0.00,Weather View 32 v70,2013-02-21 04:45:00,
2013-02-20 19:50:00,24.1,20.5,29.44,NNE,22,0.0,1.0,86,0.00,,,0.00,Weather View 32 v70,2013-02-21 04:50:00,
2013-02-20 19:55:00,24.1,20.5,29.44,NNE,22,0.0,1.0,86,0.00,,,0.00,Weather View 32 v70,2013-02-21 04:55:00,
2013-02-20 20:00:00,23.9,20.3,29.44,NNE,22,0.0,1.0,86,0.00,,,0.00,Weather View 32 v70,2013-02-21 05:00:00,
2013-02-20 20:05:00,23.9,20.3,29.44,NNE,22,1.0,1.0,86,0.00,,,0.00,Weather View 32 v70,2013-02-21 05:05:00,
2013-02-20 20:10:00,23.9,20.6,29.44,NNE,22,1.0,1.0,87,0.00,,,0.00,Weather View 32 v70,2013-02-21 05:10:00,
2013-02-20 20:15:00,23.5,20.2,29.44,NNE,22,1.0,1.0,87,0.00,,,0.00,Weather View 32 v70,2013-02-21 05:15:00,
2013-02-20 20:20:00,23.4,20.1,29.44,NNE,22,1.0,1.0,87,0.00,,,0.00,Weather View 32 v70,2013-02-21 05:20:00,
2013-02-20 20:25:00,23.2,19.9,29.45,NNE,22,0.0,1.0,87,0.00,,,0.00,Weather View 32 v70,2013-02-21 05:25:00,
2013-02-20 20:30:00,23.2,19.9,29.45,NNE,22,1.0,1.0,87,0.00,,,0.00,Weather View 32 v70,2013-02-21 05:30:00,
2013-02-20 20:35:00,23.2,19.9,29.45,NNE,22,1.0,1.0,87,0.00,,,0.00,Weather View 32 v70,2013-02-21 05:35:00,
2013-02-20 20:40:00,23.2,19.9,29.45,NNE,22,2.0,2.0,87,0.00,,,0.00,Weather View 32 v70,2013-02-21 05:40:00,
2013-02-20 20:45:00,23.5,20.2,29.45,NNE,22,2.0,2.0,87,0.00,,,0.00,Weather View 32 v70,2013-02-21 05:45:00,
2013-02-20 20:50:00,23.5,20.2,29.45,NNE,22,2.0,2.0,87,0.00,,,0.00,Weather View 32 v70,2013-02-21 05:50:00,
2013-02-20 20:55:00,23.5,20.2,29.45,NNE,22,2.0,2.0,87,0.00,,,0.00,Weather View 32 v70,2013-02-21 05:55:00,
2013-02-20 21:00:00,23.5,20.2,29.45,NNE,22,1.0,2.0,87,0.00,,,0.00,Weather View 32 v70,2013-02-21 06:00:00,
2013-02-20 21:05:00,23.5,20.2,29.46,NNE,22,1.0,2.0,87,0.00,,,0.00,Weather View 32 v70,2013-02-21 06:05:00,
2013-02-20 21:10:00,23.5,20.2,29.46,NNE,22,1.0,2.0,87,0.00,,,0.00,Weather View 32 v70,2013-02-21 06:10:00,
2013-02-20 21:15:00,23.5,20.2,29.46,NNE,22,1.0,2.0,87,0.00,,,0.00,Weather View 32 v70,2013-02-21 06:15:00,
2013-02-20 21:20:00,23.5,20.2,29.46,NNE,22,1.0,2.0,87,0.00,,,0.00,Weather View 32 v70,2013-02-21 06:20:00,
2013-02-20 21:25:00,23.5,20.2,29.45,NNE,22,0.0,2.0,87,0.00,,,0.00,Weather View 32 v70,2013-02-21 06:25:00,
2013-02-20 21:30:00,23.5,20.2,29.45,NNE,22,0.0,2.0,87,0.00,,,0.00,Weather View 32 v70,2013-02-21 06:30:00,
2013-02-20 21:35:00,23.4,20.1,29.45,NNE,22,0.0,2.0,87,0.00,,,0.00,Weather View 32 v70,2013-02-21 06:35:00,
2013-02-20 21:40:00,23.2,19.9,29.45,NNE,22,0.0,2.0,87,0.00,,,0.00,Weather View 32 v70,2013-02-21 06:40:00,
2013-02-20 21:45:00,23.2,19.9,29.46,NNE,22,0.0,2.0,87,0.00,,,0.00,Weather View 32 v70,2013-02-21 06:45:00,
2013-02-20 21:50:00,23.2,19.9,29.46,NNE,22,0.0,2.0,87,0.00,,,0.00,Weather View 32 v70,2013-02-21 06:50:00,
2013-02-20 21:55:00,23.0,19.7,29.46,NNE,22,0.0,2.0,87,0.00,,,0.00,Weather View 32 v70,2013-02-21 06:55:00,
2013-02-20 22:00:00,23.2,19.9,29.46,NNE,22,1.0,1.0,87,0.00,,,0.00,Weather View 32 v70,2013-02-21 07:00:00,
2013-02-20 22:05:00,23.2,19.9,29.46,NNE,22,1.0,1.0,87,0.00,,,0.00,Weather View 32 v70,2013-02-21 07:05:00,
2013-02-20 22:10:00,23.2,19.9,29.46,NNE,22,0.0,1.0,87,0.00,,,0.00,Weather View 32 v70,2013-02-21 07:10:00,
2013-02-20 22:15:00,22.8,19.5,29.46,NNE,22,0.0,1.0,87,0.00,,,0.00,Weather View 32 v70,2013-02-21 07:15:00,
2013-02-20 22:20:00,22.8,19.5,29.46,NNE,22,0.0,1.0,87,0.00,,,0.00,Weather View 32 v70,2013-02-21 07:20:00,
2013-02-20 22:25:00,22.8,19.5,29.47,NNE,22,0.0,1.0,87,0.00,,,0.00,Weather View 32 v70,2013-02-21 07:25:00,
2013-02-20 22:30:00,22.8,19.8,29.47,NNE,22,0.0,1.0,88,0.00,,,0.00,Weather View 32 v70,2013-02-21 07:30:00,
2013-02-20 22:35:00,22.6,19.4,29.47,NNE,22,0.0,1.0,87,0.00,,,0.00,Weather View 32 v70,2013-02-21 07:35:00,
2013-02-20 22:40:00,22.5,19.4,29.47,NNE,22,0.0,1.0,88,0.00,,,0.00,Weather View 32 v70,2013-02-21 07:40:00,
2013-02-20 22:45:00,22.5,19.4,29.47,NNE,22,0.0,1.0,88,0.00,,,0.00,Weather View 32 v70,2013-02-21 07:45:00,
2013-02-20 22:50:00,22.5,19.4,29.47,NNE,22,0.0,1.0,88,0.00,,,0.00,Weather View 32 v70,2013-02-21 07:50:00,
2013-02-20 22:55:00,22.5,19.4,29.47,NNE,22,0.0,1.0,88,0.00,,,0.00,Weather View 32 v70,2013-02-21 07:55:00,
2013-02-20 23:00:00,22.5,19.4,29.47,NNE,22,0.0,1.0,88,0.00,,,0.00,Weather View 32 v70,2013-02-21 08:00:00,
2013-02-20 23:05:00,22.1,19.1,29.48,NNE,22,0.0,1.0,88,0.00,,,0.00,Weather View 32 v70,2013-02-21 08:05:00,
2013-02-20 23:10:00,22.1,19.1,29.48,NNE,22,0.0,0.0,88,0.00,,,0.00,Weather View 32 v70,2013-02-21 08:10:00,
2013-02-20 23:15:00,22.1,19.1,29.48,NNE,22,0.0,0.0,88,0.00,,,0.00,Weather View 32 v70,2013-02-21 08:15:00,
2013-02-20 23:20:00,21.9,18.9,29.48,NNE,22,0.0,0.0,88,0.00,,,0.00,Weather View 32 v70,2013-02-21 08:20:00,
2013-02-20 23:25:00,21.7,18.7,29.48,NNE,22,0.0,0.0,88,0.00,,,0.00,Weather View 32 v70,2013-02-21 08:25:00,
2013-02-20 23:30:00,21.7,18.7,29.48,NNE,22,0.0,0.0,88,0.00,,,0.00,Weather View 32 v70,2013-02-21 08:30:00,
2013-02-20 23:35:00,21.7,18.7,29.48,NNE,22,0.0,0.0,88,0.00,,,0.00,Weather View 32 v70,2013-02-21 08:35:00,
2013-02-20 23:40:00,21.7,18.7,29.48,NNE,22,0.0,0.0,88,0.00,,,0.00,Weather View 32 v70,2013-02-21 08:40:00,
2013-02-20 23:45:00,21.7,18.7,29.49,NNE,22,0.0,0.0,88,0.00,,,0.00,Weather View 32 v70,2013-02-21 08:45:00,
2013-02-20 23:50:00,21.7,18.7,29.49,NNE,22,0.0,0.0,88,0.00,,,0.00,Weather View 32 v70,2013-02-21 08:50:00,
2013-02-20 23:55:00,21.7,18.7,29.49,NNE,22,0.0,0.0,88,0.00,,,0.00,Weather View 32 v70,2013-02-21 08:55:00,